createdAt,value
2017-05-17T00:01:37.455Z,57.30
2017-05-17T00:04:06.408Z,57.40
2017-05-17T00:06:34.623Z,58.10
2017-05-17T00:09:03.573Z,57.60
2017-05-17T00:11:31.782Z,58.60
2017-05-17T00:14:00.740Z,58.40
2017-05-17T00:16:28.952Z,60.10
2017-05-17T00:18:57.912Z,59.70
2017-05-17T00:21:26.112Z,60.30
2017-05-17T00:23:56.086Z,61.20
2017-05-17T00:26:24.289Z,60.50
2017-05-17T00:28:52.482Z,60.00
2017-05-17T00:31:21.435Z,60.70
2017-05-17T00:33:49.636Z,60.10
2017-05-17T00:36:29.727Z,62.10
2017-05-17T00:39:09.716Z,61.80
2017-05-17T00:41:49.879Z,61.30
2017-05-17T00:44:29.955Z,60.60
2017-05-17T00:47:10.730Z,62.90
2017-05-17T00:49:51.531Z,62.70
2017-05-17T00:52:19.747Z,62.70
2017-05-17T00:54:47.951Z,63.40
2017-05-17T00:57:16.912Z,64.40
2017-05-17T00:59:45.115Z,65.00
2017-05-17T01:02:14.064Z,65.70
2017-05-17T01:04:42.283Z,66.10
2017-05-17T01:07:10.491Z,66.40
2017-05-17T01:09:38.702Z,67.80
2017-05-17T01:12:06.907Z,67.10
2017-05-17T01:14:35.861Z,67.00
2017-05-17T01:17:04.060Z,67.30
2017-05-17T01:19:32.268Z,66.40
2017-05-17T01:22:00.486Z,66.00
2017-05-17T01:24:28.704Z,65.00
2017-05-17T01:26:57.663Z,64.50
2017-05-17T01:29:25.863Z,66.80
2017-05-17T01:31:54.807Z,66.10
2017-05-17T01:34:23.020Z,64.40
2017-05-17T01:36:51.972Z,66.40
2017-05-17T01:39:20.195Z,65.50
2017-05-17T01:41:49.139Z,66.30
2017-05-17T01:44:17.360Z,66.60
2017-05-17T01:46:46.307Z,66.00
2017-05-17T01:49:14.508Z,66.10
2017-05-17T01:51:42.722Z,64.80
2017-05-17T01:54:10.944Z,65.40
2017-05-17T01:56:39.158Z,65.40
2017-05-17T01:59:08.107Z,65.40
2017-05-17T02:01:36.312Z,66.00
2017-05-17T02:04:05.284Z,65.90
2017-05-17T02:06:33.484Z,66.50
2017-05-17T02:09:03.085Z,67.50
2017-05-17T02:11:32.040Z,68.70
2017-05-17T02:14:00.240Z,68.30
2017-05-17T02:16:28.516Z,69.20
2017-05-17T02:18:56.727Z,69.00
2017-05-17T02:21:25.577Z,69.60
2017-05-17T02:23:53.775Z,67.60
2017-05-17T02:26:22.719Z,67.90
2017-05-17T02:28:51.173Z,67.30
2017-05-17T02:31:19.374Z,68.20
2017-05-17T02:33:47.592Z,68.00
2017-05-17T02:36:16.539Z,68.00
2017-05-17T02:38:44.759Z,69.40
2017-05-17T02:41:13.701Z,69.00
2017-05-17T02:43:41.905Z,68.70
2017-05-17T02:46:10.115Z,68.70
2017-05-17T02:48:38.346Z,68.50
2017-05-17T02:51:07.563Z,68.90
2017-05-17T02:53:36.518Z,69.10
2017-05-17T02:56:04.735Z,67.50
2017-05-17T02:58:33.676Z,62.80
2017-05-17T03:01:01.883Z,65.80
2017-05-17T03:03:30.099Z,67.00
2017-05-17T03:05:58.304Z,67.80
2017-05-17T03:08:26.516Z,66.80
2017-05-17T03:10:54.716Z,66.40
2017-05-17T03:13:22.936Z,66.20
2017-05-17T03:15:51.135Z,67.00
2017-05-17T03:18:19.340Z,67.40
2017-05-17T03:20:47.563Z,67.20
2017-05-17T03:23:15.777Z,67.50
2017-05-17T03:25:44.739Z,67.20
2017-05-17T03:28:12.940Z,67.00
2017-05-17T03:30:41.908Z,67.50
2017-05-17T03:33:10.107Z,68.60
2017-05-17T03:35:39.059Z,68.00
2017-05-17T03:38:07.283Z,68.10
2017-05-17T03:40:36.227Z,68.40
2017-05-17T03:43:04.439Z,70.30
2017-05-17T03:45:33.391Z,70.70
2017-05-17T03:48:01.614Z,70.70
2017-05-17T03:50:30.559Z,70.90
2017-05-17T03:52:58.764Z,70.70
2017-05-17T03:55:26.976Z,70.90
2017-05-17T03:57:55.176Z,70.30
2017-05-17T04:00:23.395Z,70.60
2017-05-17T04:02:52.338Z,70.10
2017-05-17T04:05:24.202Z,70.60
2017-05-17T04:07:52.408Z,71.50
2017-05-17T04:10:20.607Z,71.20
2017-05-17T04:12:49.571Z,70.60
2017-05-17T04:15:17.779Z,70.20
2017-05-17T04:17:45.999Z,69.10
2017-05-17T04:20:14.205Z,68.10
2017-05-17T04:22:42.415Z,68.70
2017-05-17T04:25:10.618Z,69.60
2017-05-17T04:27:38.819Z,68.70
2017-05-17T04:30:07.043Z,66.90
2017-05-17T04:32:35.247Z,69.20
2017-05-17T04:35:03.467Z,66.10
2017-05-17T04:37:32.419Z,66.20
2017-05-17T04:40:00.627Z,65.00
2017-05-17T04:42:29.573Z,65.00
2017-05-17T04:44:57.779Z,65.90
2017-05-17T04:47:25.991Z,64.20
2017-05-17T04:49:54.197Z,67.90
2017-05-17T04:52:22.422Z,64.40
2017-05-17T04:54:51.364Z,65.50
2017-05-17T04:57:19.588Z,63.40
2017-05-17T04:59:48.588Z,63.40
2017-05-17T05:02:17.535Z,58.90
2017-05-17T05:04:45.751Z,60.40
2017-05-17T05:07:14.701Z,57.70
2017-05-17T05:09:42.915Z,57.20
2017-05-17T05:12:11.848Z,57.40
2017-05-17T05:14:40.078Z,57.20
2017-05-17T05:17:08.283Z,56.50
2017-05-17T05:19:36.490Z,56.30
2017-05-17T05:22:04.716Z,55.00
2017-05-17T05:24:32.923Z,53.20
2017-05-17T05:27:01.135Z,52.30
2017-05-17T05:29:29.336Z,51.80
2017-05-17T05:31:58.303Z,52.20
2017-05-17T05:34:26.507Z,52.10
2017-05-17T05:36:55.851Z,53.70
2017-05-17T05:39:24.075Z,54.50
2017-05-17T05:41:53.019Z,54.50
2017-05-17T05:44:21.248Z,55.00
2017-05-17T05:46:50.187Z,53.20
2017-05-17T05:49:18.426Z,53.40
2017-05-17T05:51:46.627Z,53.30
2017-05-17T05:54:14.840Z,53.20
2017-05-17T05:56:43.051Z,53.60
2017-05-17T05:59:11.267Z,54.40
2017-05-17T06:01:39.476Z,53.30
2017-05-17T06:04:08.420Z,56.10
2017-05-17T06:06:36.635Z,54.20
2017-05-17T06:09:04.839Z,55.50
2017-05-17T06:11:33.051Z,53.30
2017-05-17T06:14:01.271Z,51.60
2017-05-17T06:16:30.219Z,53.30
2017-05-17T06:18:58.437Z,51.80
2017-05-17T06:21:27.382Z,51.50
2017-05-17T06:23:55.612Z,49.50
2017-05-17T06:26:23.823Z,45.00
2017-05-17T06:28:52.030Z,46.50
2017-05-17T06:31:20.244Z,42.50
2017-05-17T06:33:48.459Z,41.90
2017-05-17T06:36:16.688Z,47.00
2017-05-17T06:38:44.908Z,45.70
2017-05-17T06:41:13.124Z,45.70
2017-05-17T06:43:42.076Z,44.00
2017-05-17T06:46:11.071Z,41.00
2017-05-17T06:48:39.287Z,38.50
2017-05-17T06:51:08.238Z,40.20
2017-05-17T06:53:36.456Z,38.10
2017-05-17T06:56:05.403Z,39.40
2017-05-17T06:58:33.623Z,38.30
2017-05-17T07:01:02.567Z,39.50
2017-05-17T07:03:30.767Z,42.10
2017-05-17T07:05:58.987Z,41.10
2017-05-17T07:08:27.196Z,41.60
2017-05-17T07:10:55.412Z,42.40
2017-05-17T07:13:24.715Z,45.60
2017-05-17T07:15:53.683Z,43.10
2017-05-17T07:18:21.895Z,43.50
2017-05-17T07:20:50.096Z,43.70
2017-05-17T07:23:18.320Z,45.30
2017-05-17T07:25:47.263Z,42.00
2017-05-17T07:28:15.476Z,44.10
2017-05-17T07:30:43.672Z,42.70
2017-05-17T07:33:12.643Z,40.70
2017-05-17T07:35:40.861Z,41.80
2017-05-17T07:38:09.075Z,42.00
2017-05-17T07:40:37.295Z,43.40
2017-05-17T07:43:06.239Z,38.90
2017-05-17T07:45:34.481Z,43.10
2017-05-17T07:48:02.687Z,40.00
2017-05-17T07:50:30.915Z,40.30
2017-05-17T07:52:59.115Z,40.20
2017-05-17T07:55:27.317Z,38.60
2017-05-17T07:57:55.531Z,41.90
2017-05-17T08:00:24.478Z,38.30
2017-05-17T08:02:52.696Z,41.60
2017-05-17T08:05:21.645Z,37.50
2017-05-17T08:07:49.872Z,37.10
2017-05-17T08:10:18.080Z,37.50
2017-05-17T08:12:46.279Z,38.00
2017-05-17T08:15:14.500Z,36.80
2017-05-17T08:17:42.700Z,39.90
2017-05-17T08:20:10.913Z,37.80
2017-05-17T08:22:39.116Z,37.50
2017-05-17T08:25:08.139Z,38.50
2017-05-17T08:27:36.344Z,36.90
2017-05-17T08:30:04.556Z,38.20
2017-05-17T08:32:32.767Z,39.00
2017-05-17T08:35:00.975Z,36.80
2017-05-17T08:37:29.177Z,36.70
2017-05-17T08:39:58.150Z,39.10
2017-05-17T08:42:27.099Z,36.90
2017-05-17T08:44:56.220Z,36.10
2017-05-17T08:47:24.423Z,37.90
2017-05-17T08:49:53.380Z,36.80
2017-05-17T08:52:21.580Z,35.10
2017-05-17T08:54:49.799Z,35.70
2017-05-17T08:57:18.007Z,36.10
2017-05-17T08:59:46.223Z,36.20
2017-05-17T09:02:15.172Z,36.90
2017-05-17T09:04:43.373Z,37.00
2017-05-17T09:07:11.587Z,34.70
2017-05-17T09:09:39.788Z,37.70
2017-05-17T09:12:08.007Z,36.20
2017-05-17T09:14:36.211Z,33.90
2017-05-17T09:17:04.425Z,36.00
2017-05-17T09:19:32.630Z,37.50
2017-05-17T09:22:01.600Z,36.00
2017-05-17T09:24:29.807Z,36.60
2017-05-17T09:26:58.027Z,35.20
2017-05-17T09:29:26.236Z,37.50
2017-05-17T09:31:54.451Z,34.60
2017-05-17T09:34:22.649Z,37.80
2017-05-17T09:36:50.860Z,38.00
2017-05-17T09:39:19.060Z,36.80
2017-05-17T09:41:47.279Z,36.80
2017-05-17T09:44:15.489Z,35.80
2017-05-17T09:46:44.452Z,35.00
2017-05-17T09:49:12.656Z,36.00
2017-05-17T09:51:41.611Z,35.80
2017-05-17T09:54:09.811Z,35.50
2017-05-17T09:56:38.012Z,37.20
2017-05-17T09:59:06.233Z,38.00
2017-05-17T10:01:34.431Z,36.60
2017-05-17T10:04:02.652Z,35.90
2017-05-17T10:06:30.865Z,40.40
2017-05-17T10:08:59.071Z,37.30
2017-05-17T10:11:28.023Z,37.50
2017-05-17T10:13:56.236Z,35.70
2017-05-17T10:16:25.187Z,34.60
2017-05-17T10:18:53.405Z,36.60
2017-05-17T10:21:22.359Z,36.30
2017-05-17T10:23:50.575Z,33.60
2017-05-17T10:26:19.511Z,34.80
2017-05-17T10:28:47.727Z,35.20
2017-05-17T10:31:15.936Z,33.50
2017-05-17T10:33:44.160Z,35.20
2017-05-17T10:36:12.355Z,33.70
2017-05-17T10:38:41.314Z,36.00
2017-05-17T10:41:09.530Z,32.90
2017-05-17T10:43:38.491Z,33.10
2017-05-17T10:46:06.691Z,31.90
2017-05-17T10:48:35.653Z,32.30
2017-05-17T10:51:03.851Z,33.50
2017-05-17T10:53:32.071Z,32.40
2017-05-17T10:56:00.271Z,33.50
2017-05-17T10:58:28.479Z,31.30
2017-05-17T11:00:57.444Z,33.30
2017-05-17T11:03:26.443Z,35.20
2017-05-17T11:05:54.668Z,36.10
2017-05-17T11:08:22.872Z,34.20
2017-05-17T11:10:51.998Z,33.50
2017-05-17T11:13:20.198Z,34.10
2017-05-17T11:15:49.155Z,35.10
2017-05-17T11:18:17.360Z,35.20
2017-05-17T11:20:46.318Z,36.30
2017-05-17T11:23:14.519Z,34.10
2017-05-17T11:25:43.477Z,35.80
2017-05-17T11:28:11.675Z,33.70
2017-05-17T11:30:39.902Z,33.70
2017-05-17T11:33:08.114Z,33.50
2017-05-17T11:35:36.328Z,32.50
2017-05-17T11:38:05.272Z,32.00
2017-05-17T11:40:33.484Z,34.60
2017-05-17T11:43:02.431Z,33.60
2017-05-17T11:45:30.643Z,32.50
2017-05-17T11:47:59.595Z,32.40
2017-05-17T11:50:27.820Z,34.30
2017-05-17T11:52:56.868Z,34.70
2017-05-17T11:55:25.075Z,33.60
2017-05-17T11:57:54.035Z,32.90
2017-05-17T12:00:22.256Z,31.60
2017-05-17T12:02:51.206Z,34.60
2017-05-17T12:05:19.431Z,33.90
2017-05-17T12:07:48.373Z,36.60
2017-05-17T12:10:16.583Z,38.10
2017-05-17T12:12:45.540Z,34.10
2017-05-17T12:15:13.755Z,32.90
2017-05-17T12:17:42.714Z,34.00
2017-05-17T12:20:10.927Z,33.90
2017-05-17T12:22:39.870Z,31.50
2017-05-17T12:25:08.092Z,33.60
2017-05-17T12:27:37.040Z,34.90
2017-05-17T12:30:05.247Z,33.90
2017-05-17T12:32:34.200Z,31.20
2017-05-17T12:35:02.408Z,33.40
2017-05-17T12:37:31.366Z,35.30
2017-05-17T12:39:59.563Z,35.70
2017-05-17T12:42:27.780Z,37.50
2017-05-17T12:44:55.992Z,35.50
2017-05-17T12:47:24.208Z,36.70
2017-05-17T12:49:53.160Z,36.50
2017-05-17T12:52:21.377Z,32.90
2017-05-17T12:54:50.322Z,31.70
2017-05-17T12:57:18.523Z,34.70
2017-05-17T12:59:47.316Z,37.90
2017-05-17T13:02:15.508Z,33.40
2017-05-17T13:04:44.467Z,37.90
2017-05-17T13:07:12.671Z,34.60
2017-05-17T13:09:41.635Z,34.60
2017-05-17T13:12:09.835Z,35.30
2017-05-17T13:14:38.803Z,35.20
2017-05-17T13:17:07.007Z,36.60
2017-05-17T13:19:35.963Z,37.00
2017-05-17T13:22:04.165Z,37.60
2017-05-17T13:24:33.123Z,35.90
2017-05-17T13:27:01.331Z,35.10
2017-05-17T13:29:30.311Z,36.90
2017-05-17T13:31:58.527Z,37.60
2017-05-17T13:34:26.735Z,35.70
2017-05-17T13:36:54.935Z,38.70
2017-05-17T13:39:23.156Z,38.50
2017-05-17T13:41:51.367Z,34.90
2017-05-17T13:44:19.591Z,34.10
2017-05-17T13:46:47.807Z,35.20
2017-05-17T13:49:16.003Z,37.20
2017-05-17T13:51:44.222Z,35.60
2017-05-17T13:54:12.420Z,36.10
2017-05-17T13:56:40.648Z,39.40
2017-05-17T13:59:09.603Z,35.80
2017-05-17T14:01:37.817Z,36.00
2017-05-17T14:04:06.771Z,37.20
2017-05-17T14:06:34.975Z,37.50
2017-05-17T14:09:03.193Z,38.00
2017-05-17T14:11:31.393Z,38.50
2017-05-17T14:13:59.611Z,36.10
2017-05-17T14:16:27.823Z,36.80
2017-05-17T14:18:56.036Z,38.30
2017-05-17T14:21:24.286Z,35.70
2017-05-17T14:23:52.471Z,37.10
2017-05-17T14:26:20.713Z,38.20
2017-05-17T14:28:48.913Z,38.10
2017-05-17T14:31:17.124Z,37.30
2017-05-17T14:33:46.531Z,40.30
2017-05-17T14:36:15.485Z,37.40
2017-05-17T14:38:43.700Z,37.00
2017-05-17T14:41:12.646Z,38.70
2017-05-17T14:43:40.856Z,39.20
2017-05-17T14:46:09.814Z,37.20
2017-05-17T14:48:38.035Z,39.10
2017-05-17T14:51:06.985Z,39.30
2017-05-17T14:53:35.200Z,38.20
2017-05-17T14:56:04.155Z,37.70
2017-05-17T14:58:32.365Z,37.40
2017-05-17T15:01:01.324Z,39.00
2017-05-17T15:03:29.536Z,37.10
2017-05-17T15:05:58.499Z,40.50
2017-05-17T15:08:26.701Z,38.40
2017-05-17T15:10:54.940Z,37.80
2017-05-17T15:13:23.156Z,39.20
2017-05-17T15:15:51.377Z,37.40
2017-05-17T15:18:19.575Z,38.20
2017-05-17T15:20:47.778Z,37.90
2017-05-17T15:23:16.730Z,37.20
2017-05-17T15:25:44.931Z,40.30
2017-05-17T15:28:13.901Z,38.60
2017-05-17T15:30:42.111Z,39.10
2017-05-17T15:33:11.064Z,38.60
2017-05-17T15:35:39.264Z,41.10
2017-05-17T15:38:08.223Z,39.70
2017-05-17T15:40:36.431Z,39.00
2017-05-17T15:43:04.652Z,40.70
2017-05-17T15:45:32.852Z,38.90
2017-05-17T15:48:01.069Z,40.10
2017-05-17T15:50:30.015Z,40.20
2017-05-17T15:53:00.627Z,41.90
2017-05-17T15:55:45.135Z,39.70
2017-05-17T15:58:14.090Z,40.00
2017-05-17T16:00:42.288Z,40.00
2017-05-17T16:03:10.495Z,40.50
2017-05-17T16:05:39.430Z,39.80
2017-05-17T16:08:07.644Z,40.00
2017-05-17T16:10:35.839Z,39.00
2017-05-17T16:13:04.035Z,41.40
2017-05-17T16:15:32.240Z,37.90
2017-05-17T16:18:00.443Z,40.40
2017-05-17T16:20:29.394Z,39.70
2017-05-17T16:22:57.600Z,42.40
2017-05-17T16:25:25.800Z,41.90
2017-05-17T16:27:54.752Z,41.20
2017-05-17T16:30:22.963Z,43.30
2017-05-17T16:32:51.180Z,44.10
2017-05-17T16:35:19.383Z,42.80
2017-05-17T16:37:47.587Z,41.20
2017-05-17T16:40:16.527Z,40.70
2017-05-17T16:42:44.734Z,42.70
2017-05-17T16:45:13.683Z,43.20
2017-05-17T16:47:41.896Z,42.10
2017-05-17T16:50:10.981Z,45.40
2017-05-17T16:52:39.180Z,46.60
2017-05-17T16:55:08.127Z,46.50
2017-05-17T16:57:36.323Z,46.40
2017-05-17T17:00:04.527Z,46.60
2017-05-17T17:02:33.473Z,47.30
2017-05-17T17:05:01.671Z,44.40
2017-05-17T17:07:29.870Z,43.20
2017-05-17T17:09:58.833Z,45.70
2017-05-17T17:12:27.039Z,45.70
2017-05-17T17:14:55.988Z,44.00
2017-05-17T17:17:24.192Z,45.50
2017-05-17T17:19:53.138Z,45.10
2017-05-17T17:22:21.347Z,45.10
2017-05-17T17:24:49.552Z,45.40
2017-05-17T17:27:17.757Z,46.20
2017-05-17T17:29:45.975Z,46.80
2017-05-17T17:32:14.929Z,45.90
2017-05-17T17:34:43.130Z,45.60
2017-05-17T17:37:11.346Z,46.50
2017-05-17T17:39:39.563Z,46.40
2017-05-17T17:42:07.769Z,47.30
2017-05-17T17:44:36.726Z,48.80
2017-05-17T17:47:04.935Z,49.20
2017-05-17T17:49:33.901Z,47.90
2017-05-17T17:52:02.101Z,48.40
2017-05-17T17:54:30.321Z,48.90
2017-05-17T17:56:58.528Z,49.00
2017-05-17T17:59:26.736Z,49.80
2017-05-17T18:01:54.184Z,49.70
2017-05-17T18:04:23.122Z,49.70
2017-05-17T18:06:51.328Z,50.60
2017-05-17T18:09:19.536Z,49.70
2017-05-17T18:11:48.483Z,49.90
2017-05-17T18:14:16.680Z,50.70
2017-05-17T18:16:44.887Z,50.40
2017-05-17T18:19:13.091Z,51.00
2017-05-17T18:21:41.297Z,51.40
2017-05-17T18:24:09.503Z,51.70
2017-05-17T18:26:37.731Z,52.10
2017-05-17T18:29:05.925Z,52.00
2017-05-17T18:31:34.146Z,52.00
2017-05-17T18:34:02.352Z,52.40
2017-05-17T18:36:30.555Z,53.00
2017-05-17T18:38:58.759Z,53.70
2017-05-17T18:41:26.970Z,54.20
2017-05-17T18:43:55.171Z,54.10
2017-05-17T18:46:23.380Z,54.10
2017-05-17T18:48:52.416Z,54.20
2017-05-17T18:51:20.621Z,54.00
2017-05-17T18:53:48.819Z,54.50
2017-05-17T18:56:17.027Z,54.90
2017-05-17T18:58:45.223Z,54.40
2017-05-17T19:01:13.431Z,54.60
2017-05-17T19:03:42.383Z,54.40
2017-05-17T19:06:10.585Z,54.30
2017-05-17T19:08:38.784Z,54.10
2017-05-17T19:11:06.987Z,54.60
2017-05-17T19:13:35.192Z,54.30
2017-05-17T19:16:03.387Z,54.40
2017-05-17T19:18:32.356Z,54.40
2017-05-17T19:21:00.555Z,54.60
2017-05-17T19:23:29.504Z,54.60
2017-05-17T19:25:57.711Z,54.40
2017-05-17T19:28:25.919Z,54.60
2017-05-17T19:34:12.417Z,54.90
2017-05-17T19:36:41.375Z,55.30
2017-05-17T19:39:09.577Z,55.60
2017-05-17T19:41:37.780Z,56.80
2017-05-17T19:44:05.980Z,56.70
2017-05-17T19:46:34.184Z,56.80
2017-05-17T19:49:02.387Z,56.80
2017-05-17T19:51:31.333Z,56.70
2017-05-17T19:53:59.540Z,57.10
2017-05-17T19:56:27.735Z,57.20
2017-05-17T19:58:56.673Z,57.20
2017-05-17T20:01:24.870Z,57.20
2017-05-17T20:03:53.075Z,57.20
2017-05-17T20:06:22.019Z,57.40
2017-05-17T20:08:50.229Z,57.40
2017-05-17T20:11:18.439Z,57.20
2017-05-17T20:13:46.652Z,57.20
2017-05-17T20:22:02.439Z,57.50
2017-05-17T20:24:40.307Z,57.60
2017-05-17T20:27:09.249Z,57.30
2017-05-17T20:29:37.468Z,57.20
2017-05-17T20:32:05.667Z,57.20
2017-05-17T20:34:33.884Z,57.40
2017-05-17T20:37:02.084Z,57.40
2017-05-17T20:39:30.280Z,57.30
2017-05-17T20:41:59.222Z,57.40
2017-05-17T20:44:27.442Z,57.50
2017-05-17T20:46:56.387Z,57.40
2017-05-17T20:49:24.642Z,57.60
2017-05-17T20:51:53.364Z,57.90
2017-05-17T20:54:21.579Z,57.80
2017-05-17T20:56:50.547Z,58.00
2017-05-17T20:59:18.747Z,58.30
2017-05-17T21:01:46.971Z,57.90
2017-05-17T21:04:15.176Z,58.40
2017-05-17T21:06:43.392Z,58.40
2017-05-17T21:09:11.595Z,58.60
2017-05-17T21:11:39.803Z,58.60
2017-05-17T21:14:08.761Z,58.10
2017-05-17T21:16:37.204Z,58.10
2017-05-17T21:19:06.152Z,57.50
2017-05-17T21:21:34.355Z,57.50
2017-05-17T21:24:03.307Z,57.70
2017-05-17T21:26:31.507Z,57.80
2017-05-17T21:29:00.463Z,57.50
2017-05-17T21:31:29.631Z,57.70
2017-05-17T21:33:57.856Z,57.80
2017-05-17T21:36:26.067Z,58.30
2017-05-17T21:38:55.003Z,58.90
2017-05-17T21:41:23.219Z,59.50
2017-05-17T21:43:52.180Z,59.70
2017-05-17T21:46:20.393Z,60.50
2017-05-17T21:48:49.332Z,61.30
2017-05-17T21:51:17.560Z,62.10
2017-05-17T21:53:46.496Z,61.80
2017-05-17T21:56:14.699Z,62.50
2017-05-17T21:58:43.160Z,61.80
2017-05-17T22:01:11.372Z,61.40
2017-05-17T22:03:40.332Z,61.00
2017-05-17T22:06:08.523Z,60.90
2017-05-17T22:08:36.744Z,60.80
2017-05-17T22:11:04.945Z,60.50
2017-05-17T22:13:33.147Z,60.60
2017-05-17T22:16:01.367Z,60.20
2017-05-17T22:18:29.568Z,60.30
2017-05-17T22:20:57.779Z,59.90
2017-05-17T22:23:25.980Z,60.00
2017-05-17T22:25:53.430Z,60.00
2017-05-17T22:28:22.373Z,59.90
2017-05-17T22:30:56.959Z,59.90
2017-05-17T22:33:25.170Z,59.70
2017-05-17T22:35:53.379Z,59.60
2017-05-17T22:38:22.331Z,59.70
2017-05-17T22:40:50.535Z,60.00
2017-05-17T22:43:18.752Z,60.00
2017-05-17T22:45:46.956Z,60.40
2017-05-17T22:48:15.180Z,60.10
2017-05-17T22:50:44.124Z,60.30
2017-05-17T22:53:12.399Z,60.30
2017-05-17T22:55:40.607Z,60.50
2017-05-17T22:58:08.800Z,60.60
2017-05-17T23:00:37.022Z,60.30
2017-05-17T23:03:05.237Z,60.50
2017-05-17T23:05:34.199Z,61.40
2017-05-17T23:08:02.403Z,62.50
2017-05-17T23:10:31.339Z,63.40
2017-05-17T23:12:59.559Z,64.00
2017-05-17T23:15:27.767Z,64.90
2017-05-17T23:17:55.987Z,65.60
2017-05-17T23:20:24.204Z,66.40
2017-05-17T23:22:53.164Z,66.60
2017-05-17T23:25:21.364Z,66.70
2017-05-17T23:27:50.311Z,66.50
2017-05-17T23:30:18.534Z,66.10
2017-05-17T23:32:47.480Z,66.80
2017-05-17T23:35:15.708Z,67.00
2017-05-17T23:37:43.924Z,67.30
2017-05-17T23:40:12.127Z,67.90
2017-05-17T23:42:40.791Z,68.40
2017-05-17T23:45:09.760Z,69.10
2017-05-17T23:47:37.963Z,70.30
2017-05-17T23:50:06.163Z,71.00
2017-05-17T23:52:34.380Z,71.10
2017-05-17T23:55:02.579Z,71.20
2017-05-17T23:57:30.795Z,71.00
2017-05-17T23:59:59.747Z,71.20
